Time;durP1;ratioP1;P1;durP2;ratioP2;P2;SDS_P1;SDS_P2;PMS_P1;PMS_P2;Temp;Humidity;BMP_temperature;BMP_pressure;BME280_temperature;BME280_humidity;BME280_pressure;Samples;Min_cycle;Max_cycle;Signal;HPM_P1;HPM_P2
2022/05/22 00:01:41;;;;;;;7.28;3.50;;;;;;;10.50;89.29;101924.09;5074553;28;20032;-42
2022/05/22 00:04:07;;;;;;;10.88;3.90;;;;;;;10.55;88.97;101930.41;5074605;28;20036;-42
2022/05/22 00:06:32;;;;;;;7.22;3.70;;;;;;;10.51;88.80;101923.16;5074757;28;20548;-42
2022/05/22 00:08:58;;;;;;;10.25;3.50;;;;;;;10.43;88.80;101925.72;5074752;28;20025;-42
2022/05/22 00:11:23;;;;;;;8.52;3.63;;;;;;;10.39;89.36;101926.03;5074930;28;20459;-42
2022/05/22 00:13:49;;;;;;;12.20;3.90;;;;;;;10.52;89.48;101917.00;5074621;28;20055;-42
2022/05/22 00:18:59;;;;;;;11.40;4.28;;;;;;;10.43;88.43;101905.03;5075237;28;20062;-43
2022/05/22 00:21:25;;;;;;;6.82;3.65;;;;;;;10.44;88.25;101897.09;5074731;28;20025;-43
2022/05/22 00:23:50;;;;;;;13.02;4.13;;;;;;;10.32;88.46;101906.13;5074232;28;20024;-40
2022/05/22 00:26:16;;;;;;;9.02;4.07;;;;;;;10.29;89.41;101906.44;5074173;28;20421;-41
2022/05/22 00:28:41;;;;;;;9.05;4.03;;;;;;;10.31;90.00;101900.16;5074379;28;20115;-40
2022/05/22 00:31:06;;;;;;;8.77;4.00;;;;;;;10.45;89.83;101901.31;5074059;28;20032;-41
2022/05/22 00:33:32;;;;;;;7.85;3.80;;;;;;;10.29;89.00;101912.41;5074203;28;20355;-41
2022/05/22 00:35:57;;;;;;;8.35;3.83;;;;;;;10.27;90.03;101891.13;5074057;28;20025;-42
2022/05/22 00:38:22;;;;;;;11.43;4.43;;;;;;;10.43;90.19;101892.13;5056029;28;20089;-42
2022/05/22 00:40:48;;;;;;;8.38;3.85;;;;;;;10.55;89.67;101896.00;5073812;28;20036;-43
2022/05/22 00:43:33;;;;;;;9.40;4.40;;;;;;;10.54;89.48;101890.03;5073506;28;20198;-42
2022/05/22 00:46:00;;;;;;;9.20;3.80;;;;;;;10.38;89.24;101893.38;5074098;28;20074;-42
2022/05/22 00:48:27;;;;;;;9.23;4.10;;;;;;;10.37;90.21;101885.81;5073768;28;20075;-42
2022/05/22 00:50:57;;;;;;;9.02;3.97;;;;;;;10.29;89.65;101888.34;5074057;28;20377;-42
2022/05/22 00:53:23;;;;;;;8.50;4.00;;;;;;;10.29;88.99;101886.56;5074223;28;20020;-42
2022/05/22 00:55:48;;;;;;;12.10;4.57;;;;;;;10.25;88.82;101874.94;5055660;28;20379;-41
2022/05/22 00:58:19;;;;;;;8.30;3.95;;;;;;;10.28;88.84;101884.16;5073959;28;20059;-43
2022/05/22 01:00:45;;;;;;;8.32;3.75;;;;;;;10.32;89.21;101885.47;5073612;28;20074;-42
2022/05/22 01:03:29;;;;;;;10.55;4.07;;;;;;;10.32;89.25;101881.09;5073565;28;20413;-42
2022/05/22 01:06:06;;;;;;;7.00;3.20;;;;;;;10.42;88.66;101877.59;5073381;28;20033;-42
2022/05/22 01:08:33;;;;;;;7.03;3.58;;;;;;;10.51;88.73;101871.47;5073730;28;20025;-42
2022/05/22 01:11:03;;;;;;;10.60;3.42;;;;;;;10.53;88.23;101866.91;5073782;28;20475;-42
2022/05/22 01:13:34;;;;;;;10.05;3.83;;;;;;;10.57;87.79;101866.44;5073430;28;20032;-42
2022/05/22 01:16:01;;;;;;;11.60;3.88;;;;;;;10.56;88.09;101857.09;5073310;28;20043;-42
2022/05/22 01:18:27;;;;;;;8.65;3.63;;;;;;;10.62;88.30;101865.97;5073635;28;20059;-42
2022/05/22 01:20:53;;;;;;;8.52;3.55;;;;;;;10.57;87.78;101860.47;5073748;28;20040;-42
2022/05/22 01:23:20;;;;;;;8.82;3.50;;;;;;;10.52;88.82;101863.53;5073613;28;20493;-42
2022/05/22 01:25:47;;;;;;;9.02;3.80;;;;;;;10.50;89.20;101870.66;5073669;28;20024;-42
2022/05/22 01:28:17;;;;;;;8.25;3.40;;;;;;;10.47;89.51;101860.63;5073389;28;20029;-42
2022/05/22 01:30:43;;;;;;;9.10;4.00;;;;;;;10.46;89.82;101869.34;5073585;28;20025;-42
2022/05/22 01:33:08;;;;;;;9.90;3.90;;;;;;;10.34;89.92;101874.00;5073261;28;20031;-42
2022/05/22 01:35:35;;;;;;;10.85;3.33;;;;;;;10.29;89.90;101871.06;5073264;28;20417;-41
2022/05/22 01:38:01;;;;;;;9.45;3.20;;;;;;;10.33;90.13;101881.94;5073380;28;20060;-44
2022/05/22 01:40:27;;;;;;;12.35;3.83;;;;;;;10.15;89.91;101884.56;5073375;28;20115;-44
2022/05/22 01:42:52;;;;;;;10.05;3.83;;;;;;;10.11;90.04;101883.28;5073174;28;20031;-42
2022/05/22 01:45:24;;;;;;;6.43;3.42;;;;;;;10.09;89.72;101872.28;5073342;28;20020;-43
2022/05/22 01:47:50;;;;;;;7.90;3.53;;;;;;;10.04;89.08;101859.03;5073102;28;20103;-42
2022/05/22 01:50:16;;;;;;;8.73;3.35;;;;;;;10.06;89.06;101859.69;5073034;28;20098;-40
2022/05/22 01:52:42;;;;;;;6.57;3.58;;;;;;;10.10;89.40;101850.69;5074314;28;20029;-40
2022/05/22 01:55:09;;;;;;;7.90;3.60;;;;;;;10.09;89.36;101854.22;5077357;28;20432;-42
2022/05/22 01:57:34;;;;;;;9.48;3.47;;;;;;;9.96;89.33;101849.50;5077242;28;20013;-42
2022/05/22 02:00:00;;;;;;;13.70;4.30;;;;;;;9.89;88.96;101843.31;5077504;28;20050;-42
2022/05/22 02:02:25;;;;;;;9.93;3.78;;;;;;;9.83;88.82;101849.13;5076751;28;20107;-42
2022/05/22 02:04:51;;;;;;;9.90;3.47;;;;;;;9.82;88.32;101842.34;5076842;28;20036;-41
2022/05/22 02:10:00;;;;;;;8.85;3.40;;;;;;;9.85;88.71;101837.69;5077093;28;20397;-42
2022/05/22 02:12:26;;;;;;;6.60;2.70;;;;;;;9.90;89.27;101835.44;5077059;28;20024;-42
2022/05/22 02:14:51;;;;;;;9.40;2.90;;;;;;;9.90;89.22;101838.03;5076725;28;20024;-42
2022/05/22 02:17:17;;;;;;;7.15;2.90;;;;;;;9.92;88.47;101832.69;5077083;28;20020;-41
2022/05/22 02:19:42;;;;;;;8.93;3.10;;;;;;;10.05;87.83;101830.47;5076918;28;20107;-42
2022/05/22 02:22:08;;;;;;;5.68;2.65;;;;;;;9.90;87.61;101825.13;5076791;28;20454;-42
2022/05/22 02:24:34;;;;;;;5.78;3.25;;;;;;;9.81;88.11;101818.31;5076423;28;20059;-44
2022/05/22 02:27:03;;;;;;;6.45;2.80;;;;;;;9.73;88.38;101818.28;5076975;28;20025;-42
2022/05/22 02:29:28;;;;;;;7.63;3.00;;;;;;;9.57;88.57;101820.78;5076462;28;20056;-44
2022/05/22 02:31:53;;;;;;;7.78;2.90;;;;;;;9.63;88.54;101825.31;5076710;28;20027;-41
2022/05/22 02:34:19;;;;;;;7.80;2.75;;;;;;;9.70;88.29;101810.84;5076206;28;20382;-43
2022/05/22 02:36:44;;;;;;;7.32;2.90;;;;;;;9.77;87.92;101811.81;5077113;28;20032;-42
2022/05/22 02:39:09;;;;;;;6.13;2.60;;;;;;;9.65;88.33;101813.09;5076230;28;20025;-41
2022/05/22 02:41:34;;;;;;;8.80;3.10;;;;;;;9.61;88.95;101820.34;5077031;28;20081;-41
2022/05/22 02:44:00;;;;;;;5.63;2.53;;;;;;;9.44;89.00;101810.91;5058255;28;20021;-42
2022/05/22 02:46:25;;;;;;;6.30;2.42;;;;;;;9.41;88.56;101818.94;5076201;28;20025;-42
2022/05/22 02:48:51;;;;;;;8.25;3.05;;;;;;;9.39;87.62;101806.19;5076526;28;20032;-42
2022/05/22 02:51:20;;;;;;;5.93;2.72;;;;;;;9.30;87.68;101824.38;5076296;28;20016;-41
2022/05/22 02:53:46;;;;;;;7.13;2.80;;;;;;;9.28;88.16;101827.09;5076637;28;20035;-41
2022/05/22 02:56:14;;;;;;;6.75;2.70;;;;;;;9.21;87.88;101820.94;5075853;28;20103;-41
2022/05/22 02:58:40;;;;;;;10.00;3.08;;;;;;;9.24;87.99;101813.69;5075932;28;20028;-42
2022/05/22 03:01:06;;;;;;;6.85;2.75;;;;;;;9.26;88.28;101809.19;5076119;28;20085;-42
2022/05/22 03:03:31;;;;;;;6.00;2.70;;;;;;;9.26;88.45;101808.38;5076041;28;20035;-42
2022/05/22 03:08:41;;;;;;;7.13;3.00;;;;;;;9.26;89.27;101806.63;5076209;28;20051;-42
2022/05/22 03:11:07;;;;;;;9.68;2.97;;;;;;;9.26;88.48;101800.63;5075701;28;20099;-42
2022/05/22 03:13:32;;;;;;;7.85;2.88;;;;;;;9.39;88.92;101795.06;5075863;28;20100;-42
2022/05/22 03:15:58;;;;;;;9.48;3.15;;;;;;;9.24;89.67;101815.47;5057814;28;20035;-42
2022/05/22 03:18:23;;;;;;;6.75;3.00;;;;;;;9.31;90.02;101803.56;5075517;28;20024;-42
2022/05/22 03:20:48;;;;;;;8.63;3.03;;;;;;;9.46;90.02;101796.84;5057599;28;20066;-41
2022/05/22 03:23:14;;;;;;;9.57;2.95;;;;;;;9.49;89.79;101796.56;5075431;28;20039;-43
2022/05/22 03:25:39;;;;;;;7.05;2.70;;;;;;;9.41;89.70;101799.13;5075423;28;20032;-42
2022/05/22 03:28:05;;;;;;;9.00;3.35;;;;;;;9.33;89.96;101798.25;5057462;28;20024;-42
2022/05/22 03:30:31;;;;;;;7.95;2.80;;;;;;;9.25;89.85;101811.91;5075757;28;20370;-42
2022/05/22 03:32:56;;;;;;;12.30;3.67;;;;;;;9.19;90.22;101791.91;5075284;28;20028;-42
2022/05/22 03:35:22;;;;;;;7.55;2.90;;;;;;;9.41;90.11;101799.13;5075475;28;20052;-42
2022/05/22 03:37:47;;;;;;;12.73;3.00;;;;;;;9.44;89.00;101788.47;5057169;28;20451;-42
2022/05/22 03:40:13;;;;;;;9.38;3.35;;;;;;;9.52;89.48;101797.22;5075020;28;20100;-42
2022/05/22 03:42:38;;;;;;;11.32;3.50;;;;;;;9.47;88.55;101793.34;5057132;28;20026;-41
2022/05/22 03:45:04;;;;;;;8.60;3.13;;;;;;;9.64;88.89;101793.41;5075014;28;20016;-45
2022/05/22 03:47:30;;;;;;;7.90;2.90;;;;;;;9.56;88.92;101789.00;5075116;28;20027;-42
2022/05/22 03:49:55;;;;;;;13.48;3.20;;;;;;;9.60;88.58;101792.88;5057141;28;20389;-43
2022/05/22 03:52:20;;;;;;;10.57;3.15;;;;;;;9.67;87.93;101788.72;5074902;28;20048;-46
2022/05/22 03:54:46;;;;;;;11.52;3.25;;;;;;;9.66;88.70;101769.03;5075154;28;20051;-42
2022/05/22 03:57:11;;;;;;;6.25;3.10;;;;;;;9.66;88.08;101783.72;5056834;28;20024;-42
2022/05/22 03:59:38;;;;;;;7.32;3.22;;;;;;;9.53;88.64;101783.38;5074823;28;20496;-42
2022/05/22 04:02:04;;;;;;;9.85;3.20;;;;;;;9.51;89.15;101780.13;5074713;28;20047;-42
2022/05/22 04:04:29;;;;;;;8.02;3.03;;;;;;;9.54;88.56;101772.88;5075222;28;20031;-42
2022/05/22 04:06:54;;;;;;;8.82;2.90;;;;;;;9.51;87.72;101773.19;5075041;28;20097;-42
2022/05/22 04:09:20;;;;;;;6.90;3.20;;;;;;;9.54;87.76;101772.06;5074773;28;20081;-41
2022/05/22 04:11:45;;;;;;;8.88;3.20;;;;;;;9.56;87.87;101773.53;5074496;28;20027;-42
2022/05/22 04:14:10;;;;;;;8.48;3.00;;;;;;;9.65;87.80;101771.78;5074893;28;20024;-42
2022/05/22 04:16:36;;;;;;;6.65;2.85;;;;;;;9.71;87.60;101771.97;5055795;28;20028;-42
2022/05/22 04:19:01;;;;;;;7.82;2.88;;;;;;;9.75;87.48;101771.66;5074612;28;20016;-42
2022/05/22 04:21:26;;;;;;;10.45;3.50;;;;;;;9.74;87.20;101770.84;5074835;28;20035;-41
2022/05/22 04:26:35;;;;;;;7.03;2.80;;;;;;;9.94;86.97;101772.19;5074516;28;20075;-41
2022/05/22 04:29:01;;;;;;;8.70;3.13;;;;;;;10.06;87.09;101772.69;5074644;28;20029;-41
2022/05/22 04:31:26;;;;;;;10.88;3.30;;;;;;;10.22;86.49;101773.69;5074358;28;20020;-41
2022/05/22 04:33:51;;;;;;;8.57;3.40;;;;;;;10.17;85.52;101766.41;5074054;28;20027;-49
2022/05/22 04:36:17;;;;;;;13.05;3.30;;;;;;;10.23;85.29;101762.38;5074327;28;20036;-42
2022/05/22 04:38:42;;;;;;;9.73;3.10;;;;;;;10.26;84.60;101764.63;5073844;28;20032;-42
2022/05/22 04:41:07;;;;;;;9.32;3.30;;;;;;;10.32;85.01;101764.81;5074261;28;20443;-41
2022/05/22 04:43:33;;;;;;;8.77;3.13;;;;;;;10.29;84.92;101766.94;5074147;28;20025;-42
2022/05/22 04:45:58;;;;;;;10.23;3.15;;;;;;;10.47;84.82;101770.19;5074534;28;20454;-42
2022/05/22 04:48:26;;;;;;;7.47;3.20;;;;;;;10.56;84.26;101769.22;5073718;28;20034;-42
2022/05/22 04:50:53;;;;;;;7.50;2.97;;;;;;;10.65;84.69;101769.22;5073802;28;20024;-42
2022/05/22 04:53:22;;;;;;;11.30;3.28;;;;;;;10.59;84.32;101760.31;5073687;28;20036;-42
2022/05/22 04:55:47;;;;;;;10.32;3.10;;;;;;;10.67;84.34;101756.91;5073999;28;20108;-41
2022/05/22 04:58:13;;;;;;;9.52;3.50;;;;;;;10.75;84.36;101765.47;5055876;28;20477;-41
2022/05/22 05:00:39;;;;;;;7.78;3.55;;;;;;;10.70;84.75;101752.22;5073927;28;20032;-42
2022/05/22 05:03:05;;;;;;;7.70;3.60;;;;;;;10.95;84.74;101760.72;5074171;28;20025;-42
2022/05/22 05:05:30;;;;;;;9.85;4.20;;;;;;;11.07;83.62;101756.03;5073588;28;20024;-42
2022/05/22 05:07:55;;;;;;;12.35;4.28;;;;;;;11.19;84.60;101748.69;5073429;28;20051;-42
2022/05/22 05:10:21;;;;;;;9.27;4.13;;;;;;;11.28;83.84;101751.13;5074117;28;20508;-42
2022/05/22 05:12:47;;;;;;;10.75;4.47;;;;;;;11.51;83.89;101758.13;5073718;28;20028;-42
2022/05/22 05:15:16;;;;;;;10.73;4.57;;;;;;;11.59;83.77;101754.69;5073999;28;20104;-52
2022/05/22 05:17:42;;;;;;;16.42;4.88;;;;;;;11.78;83.05;101756.84;5073695;28;20048;-42
2022/05/22 05:20:09;;;;;;;13.38;5.00;;;;;;;11.90;83.25;101752.13;5073948;28;20032;-41
2022/05/22 05:22:35;;;;;;;13.40;5.50;;;;;;;12.06;82.68;101759.78;5073420;28;20089;-42
2022/05/22 05:25:01;;;;;;;16.35;5.75;;;;;;;12.18;82.59;101758.41;5073551;28;20024;-42
2022/05/22 05:27:26;;;;;;;16.13;5.53;;;;;;;11.98;83.37;101759.84;5073204;28;20108;-42
2022/05/22 05:29:52;;;;;;;17.92;5.68;;;;;;;12.11;83.98;101759.25;5073523;28;20051;-42
2022/05/22 05:32:21;;;;;;;15.95;6.22;;;;;;;12.35;83.69;101761.69;5073555;28;20474;-42
2022/05/22 05:34:46;;;;;;;18.77;6.50;;;;;;;12.53;82.36;101756.16;5073232;28;20036;-43
2022/05/22 05:37:12;;;;;;;18.92;7.07;;;;;;;12.67;81.42;101759.78;5073479;28;20025;-42
2022/05/22 05:39:37;;;;;;;18.35;6.85;;;;;;;12.84;80.73;101763.03;5073235;28;20024;-42
2022/05/22 05:42:03;;;;;;;15.68;7.07;;;;;;;13.00;80.42;101764.63;5073109;28;20025;-42
2022/05/22 05:44:28;;;;;;;15.95;6.57;;;;;;;13.05;79.75;101772.69;5073491;28;20040;-42
2022/05/22 05:46:53;;;;;;;17.90;6.70;;;;;;;13.79;77.78;101770.03;5073235;28;20391;-42
2022/05/22 05:49:19;;;;;;;11.77;5.40;;;;;;;19.89;56.86;101765.69;5055989;28;20032;-42
2022/05/22 05:51:44;;;;;;;15.65;5.43;;;;;;;23.66;44.90;101767.88;5073178;28;20072;-42
2022/05/22 05:54:10;;;;;;;13.55;5.22;;;;;;;24.56;42.38;101762.75;5073072;28;20029;-41
2022/05/22 05:56:40;;;;;;;10.85;4.78;;;;;;;25.33;39.38;101769.13;5073105;28;20394;-45
2022/05/22 05:59:06;;;;;;;14.60;4.47;;;;;;;25.40;38.52;101769.63;5055050;28;20025;-43
2022/05/22 06:01:31;;;;;;;16.70;4.25;;;;;;;25.27;38.89;101762.22;5073308;28;20027;-42
2022/05/22 06:03:56;;;;;;;13.45;4.53;;;;;;;26.25;36.43;101760.38;5072998;28;20386;-41
2022/05/22 06:06:22;;;;;;;12.23;4.07;;;;;;;27.52;34.82;101763.53;5054917;28;20059;-41
2022/05/22 06:08:47;;;;;;;10.55;3.70;;;;;;;27.48;36.01;101759.81;5073145;28;20137;-40
2022/05/22 06:11:13;;;;;;;16.67;4.03;;;;;;;27.35;34.95;101762.06;5072906;28;20025;-40
2022/05/22 06:13:40;;;;;;;12.98;3.95;;;;;;;27.75;33.91;101757.50;5055006;28;20025;-40
2022/05/22 06:16:07;;;;;;;10.82;3.90;;;;;;;27.87;33.69;101770.44;5073113;28;20459;-40
2022/05/22 06:18:33;;;;;;;11.57;3.85;;;;;;;28.47;32.86;101757.59;5054869;28;20462;-41
2022/05/22 06:20:58;;;;;;;11.15;3.80;;;;;;;27.97;32.65;101757.06;5054991;28;20074;-40
2022/05/22 06:23:24;;;;;;;13.85;4.30;;;;;;;28.31;32.58;101756.97;5054619;28;20051;-41
2022/05/22 06:25:49;;;;;;;10.45;3.75;;;;;;;28.30;32.75;101760.69;5073152;28;20042;-41
2022/05/22 06:28:16;;;;;;;12.63;3.95;;;;;;;25.56;36.98;101757.22;5072878;28;20036;-41
2022/05/22 06:30:42;;;;;;;11.60;3.70;;;;;;;27.92;33.81;101756.31;5072748;28;20032;-41
2022/05/22 06:33:09;;;;;;;11.32;3.70;;;;;;;29.09;32.54;101759.50;5073045;28;20048;-44
2022/05/22 06:35:38;;;;;;;10.65;3.45;;;;;;;27.60;33.27;101755.75;5072612;28;20067;-42
2022/05/22 06:38:05;;;;;;;9.75;3.42;;;;;;;28.32;33.77;101747.91;5072943;28;20455;-40
2022/05/22 06:40:30;;;;;;;13.80;3.63;;;;;;;27.72;33.46;101751.97;5074987;28;20027;-44
2022/05/22 06:42:59;;;;;;;15.50;3.80;;;;;;;28.82;31.78;101752.91;5076196;28;20028;-41
2022/05/22 06:45:25;;;;;;;10.75;3.60;;;;;;;29.01;32.24;101758.25;5076147;28;20269;-47
2022/05/22 06:47:50;;;;;;;12.05;3.75;;;;;;;25.62;37.73;101758.81;5076005;28;20024;-41
2022/05/22 06:50:19;;;;;;;9.10;3.20;;;;;;;26.73;36.26;101753.63;5076364;28;20052;-41
2022/05/22 06:52:45;;;;;;;12.77;3.67;;;;;;;28.18;33.66;101751.53;5076390;28;20112;-41
2022/05/22 06:55:11;;;;;;;9.73;3.30;;;;;;;26.83;34.55;101752.00;5076276;28;20052;-41
2022/05/22 06:57:37;;;;;;;12.80;3.13;;;;;;;27.45;34.44;101758.53;5076231;28;20451;-41
2022/05/22 07:00:06;;;;;;;12.48;3.03;;;;;;;25.84;35.95;101761.25;5075868;28;20031;-41
2022/05/22 07:02:35;;;;;;;10.27;2.90;;;;;;;24.69;38.68;101751.72;5075813;28;20060;-41
2022/05/22 07:05:00;;;;;;;9.60;2.75;;;;;;;23.25;42.70;101745.59;5075821;28;20089;-40
2022/05/22 07:07:26;;;;;;;8.32;2.78;;;;;;;21.40;43.76;101747.41;5075602;28;20048;-41
2022/05/22 07:09:52;;;;;;;10.85;2.67;;;;;;;21.04;44.14;101759.06;5075877;28;20029;-41
2022/05/22 07:12:18;;;;;;;10.98;2.50;;;;;;;20.44;45.66;101760.94;5075588;28;20360;-41
2022/05/22 07:14:44;;;;;;;9.60;2.33;;;;;;;20.53;44.94;101764.06;5075967;28;20028;-41
2022/05/22 07:17:11;;;;;;;6.78;2.00;;;;;;;21.31;43.30;101759.31;5075833;28;20024;-41
2022/05/22 07:19:37;;;;;;;7.10;1.90;;;;;;;20.44;43.84;101758.31;5057544;28;20024;-41
2022/05/22 07:22:05;;;;;;;9.68;2.22;;;;;;;20.61;45.99;101755.84;5057481;28;20420;-40
2022/05/22 07:24:30;;;;;;;9.30;2.25;;;;;;;20.69;45.53;101754.69;5075759;28;20032;-40
2022/05/22 07:26:57;;;;;;;9.38;1.83;;;;;;;20.11;44.55;101758.06;5075743;28;20016;-41
2022/05/22 07:29:22;;;;;;;6.90;2.03;;;;;;;20.68;44.21;101758.31;5076067;28;20016;-44
2022/05/22 07:31:48;;;;;;;7.63;2.67;;;;;;;21.14;44.64;101764.50;5075207;28;20382;-40
2022/05/22 07:34:13;;;;;;;10.93;2.28;;;;;;;20.88;45.30;101764.00;5075350;28;20020;-41
2022/05/22 07:36:38;;;;;;;9.88;2.60;;;;;;;19.94;46.20;101756.13;5075310;28;20475;-40
2022/05/22 07:39:04;;;;;;;9.63;2.67;;;;;;;21.22;46.12;101758.09;5057263;28;20078;-42
2022/05/22 07:41:31;;;;;;;6.90;2.20;;;;;;;21.63;46.23;101751.75;5075127;28;20432;-42
2022/05/22 07:43:57;;;;;;;8.75;2.38;;;;;;;21.24;45.21;101746.31;5075037;28;20043;-41
2022/05/22 07:46:22;;;;;;;9.57;2.38;;;;;;;20.98;48.43;101758.16;5075090;28;20070;-40
2022/05/22 07:48:47;;;;;;;12.45;2.95;;;;;;;21.09;46.54;101746.00;5074998;28;20028;-41
2022/05/22 07:51:13;;;;;;;8.65;2.30;;;;;;;20.75;46.16;101756.41;5074741;28;20086;-42
2022/05/22 07:53:38;;;;;;;10.85;2.65;;;;;;;21.52;45.94;101758.69;5074847;28;20107;-43
2022/05/22 07:56:04;;;;;;;10.82;2.50;;;;;;;20.65;44.83;101756.97;5057308;28;20078;-42
2022/05/22 07:58:30;;;;;;;10.73;2.72;;;;;;;21.48;43.18;101757.56;5075057;28;20510;-42
2022/05/22 08:00:57;;;;;;;7.80;2.17;;;;;;;21.24;43.64;101761.28;5056835;28;20020;-42
2022/05/22 08:03:22;;;;;;;6.63;2.40;;;;;;;21.43;42.56;101748.78;5074541;28;20089;-40
2022/05/22 08:05:50;;;;;;;9.13;2.28;;;;;;;21.30;43.07;101742.75;5074945;28;20028;-41
2022/05/22 08:08:16;;;;;;;7.30;2.20;;;;;;;21.29;43.87;101740.34;5036545;28;20049;-41
2022/05/22 08:10:42;;;;;;;10.13;2.20;;;;;;;21.29;42.94;101735.91;5054553;28;20115;-41
2022/05/22 08:13:09;;;;;;;7.53;1.92;;;;;;;21.30;42.38;101739.31;5054746;28;20166;-41
2022/05/22 08:15:36;;;;;;;11.73;2.45;;;;;;;21.71;43.01;101726.91;5052963;28;20074;-41
2022/05/22 08:18:02;;;;;;;7.40;1.80;;;;;;;21.38;41.13;101733.72;5054421;28;20436;-41
2022/05/22 08:20:29;;;;;;;6.60;1.98;;;;;;;21.03;40.92;101729.38;5054757;28;20027;-40
2022/05/22 08:22:57;;;;;;;6.32;1.88;;;;;;;21.37;41.98;101721.59;5054346;28;20353;-41
2022/05/22 08:25:25;;;;;;;6.25;2.00;;;;;;;21.42;41.63;101724.31;5054242;28;20025;-40
2022/05/22 08:27:51;;;;;;;7.00;1.90;;;;;;;21.94;40.63;101704.91;5055071;28;20406;-42
2022/05/22 08:30:18;;;;;;;9.75;2.10;;;;;;;22.05;41.76;101714.53;5054173;28;20374;-41
2022/05/22 08:32:45;;;;;;;9.75;1.90;;;;;;;22.61;43.00;101714.53;5054307;28;20027;-41
2022/05/22 08:35:15;;;;;;;9.18;2.20;;;;;;;22.18;39.86;101702.91;5054261;28;20041;-42
2022/05/22 08:37:40;;;;;;;7.88;2.03;;;;;;;22.41;41.29;101694.00;5053824;28;20071;-41
2022/05/22 08:40:07;;;;;;;8.70;2.20;;;;;;;22.39;41.98;101699.53;5053910;28;20029;-43
2022/05/22 08:42:41;;;;;;;8.90;2.10;;;;;;;22.20;42.56;101691.09;5053959;28;20128;-41
2022/05/22 08:45:28;;;;;;;7.20;2.45;;;;;;;22.70;41.87;101687.53;5053803;28;20041;-42
2022/05/22 08:47:58;;;;;;;7.18;1.88;;;;;;;22.47;42.21;101677.22;5054183;28;20476;-48
2022/05/22 08:50:24;;;;;;;9.30;2.50;;;;;;;21.58;41.10;101672.78;5053747;28;20068;-42
2022/05/22 08:52:51;;;;;;;8.02;2.00;;;;;;;21.92;41.39;101668.28;5053067;28;20530;-42
2022/05/22 08:58:56;;;;;;;9.45;2.13;;;;;;;22.44;40.98;101667.16;5054234;28;20028;-42
2022/05/22 09:01:15;;;;;;;7.63;1.80;;;;;;;22.54;39.33;101654.13;5053198;28;20456;-42
2022/05/22 09:03:51;;;;;;;11.00;2.20;;;;;;;21.89;39.78;101653.00;5052895;28;20033;-42
2022/05/22 09:06:30;;;;;;;7.97;2.03;;;;;;;21.63;40.02;101652.59;5056989;28;20127;-43
2022/05/22 09:08:56;;;;;;;6.80;1.85;;;;;;;22.34;39.15;101651.25;5073608;28;20020;-42
2022/05/22 09:11:43;;;;;;;5.63;1.73;;;;;;;22.96;38.51;101656.22;5073304;28;20046;-42
2022/05/22 09:14:35;;;;;;;9.85;2.30;;;;;;;22.66;39.14;101652.16;5073687;28;20082;-43
2022/05/22 09:17:09;;;;;;;8.27;1.70;;;;;;;22.00;39.11;101648.69;5073536;28;20020;-43
2022/05/22 09:19:44;;;;;;;8.32;2.28;;;;;;;22.46;40.15;101641.41;5073300;28;20031;-42
2022/05/22 09:22:18;;;;;;;7.47;2.15;;;;;;;22.35;40.74;101635.22;5073771;28;20025;-42
2022/05/22 09:24:58;;;;;;;9.85;1.98;;;;;;;22.05;40.41;101632.97;5055282;28;20020;-42
2022/05/22 09:27:30;;;;;;;8.50;1.90;;;;;;;21.39;41.80;101627.50;5073389;28;20028;-43
2022/05/22 09:30:36;;;;;;;7.85;2.10;;;;;;;22.95;39.73;101621.13;5074116;28;20081;-42
2022/05/22 09:33:29;;;;;;;8.75;1.70;;;;;;;22.27;38.51;101618.00;4992171;28;20034;-46
2022/05/22 09:36:04;;;;;;;8.90;2.03;;;;;;;20.72;42.29;101620.28;4991893;28;20120;-46
2022/05/22 09:38:58;;;;;;;4.57;1.95;;;;;;;21.92;40.99;101614.88;5049999;28;20389;-41
2022/05/22 09:41:53;;;;;;;6.38;1.60;;;;;;;22.88;40.84;101612.63;5073255;28;20020;-42
2022/05/22 09:44:27;;;;;;;8.85;1.83;;;;;;;23.23;38.66;101611.38;5073057;28;20031;-42
2022/05/22 09:47:23;;;;;;;6.95;1.85;;;;;;;23.74;37.33;101608.34;5073463;28;20027;-41
2022/05/22 09:50:10;;;;;;;7.15;1.90;;;;;;;24.55;37.31;101600.00;5072555;28;20085;-41
2022/05/22 09:53:03;;;;;;;4.57;1.67;;;;;;;24.68;37.71;101610.03;5039086;28;20032;-43
2022/05/22 09:56:00;;;;;;;6.65;1.80;;;;;;;24.29;36.43;101607.81;5038248;28;20047;-42
2022/05/22 09:58:48;;;;;;;6.88;2.20;;;;;;;23.92;36.25;101615.03;5001593;28;20041;-42
2022/05/22 10:01:27;;;;;;;9.40;2.10;;;;;;;22.48;38.98;101597.97;5055852;28;20430;-42
2022/05/22 10:03:53;;;;;;;5.65;1.85;;;;;;;24.08;37.15;101603.47;5055630;28;20032;-41
2022/05/22 10:06:18;;;;;;;7.63;1.80;;;;;;;24.59;34.65;101594.97;5073371;28;20048;-41
2022/05/22 10:08:49;;;;;;;8.13;1.83;;;;;;;23.71;37.25;101599.09;5073203;28;20463;-41
2022/05/22 10:11:50;;;;;;;9.45;2.30;;;;;;;23.43;37.00;101590.44;5055092;28;20126;-42
2022/05/22 10:14:26;;;;;;;7.68;1.67;;;;;;;23.34;36.47;101584.03;5052482;28;20039;-41
2022/05/22 10:17:04;;;;;;;5.05;1.65;;;;;;;24.41;34.90;101585.66;5058636;28;20028;-42
2022/05/22 10:19:41;;;;;;;6.35;1.88;;;;;;;23.95;34.66;101588.91;5076691;28;20024;-45
2022/05/22 10:22:29;;;;;;;4.70;1.52;;;;;;;23.00;36.03;101577.44;5058800;28;20050;-46
2022/05/22 10:24:57;;;;;;;7.10;2.00;;;;;;;23.49;36.52;101572.78;5076573;28;20040;-47
2022/05/22 10:27:40;;;;;;;7.10;1.80;;;;;;;24.33;34.42;101574.53;5058473;28;20360;-45
2022/05/22 10:30:14;;;;;;;5.68;1.90;;;;;;;23.39;35.52;101576.16;5058517;28;20032;-42
2022/05/22 10:32:43;;;;;;;9.55;1.92;;;;;;;23.58;35.75;101576.53;5076382;28;20024;-44
2022/05/22 10:35:29;;;;;;;7.43;1.77;;;;;;;23.51;35.10;101570.69;5076311;28;20466;-45
2022/05/22 10:38:13;;;;;;;8.20;1.90;;;;;;;23.67;35.40;101571.56;5077069;28;20021;-44
2022/05/22 10:43:34;;;;;;;7.90;1.77;;;;;;;22.87;35.81;101568.88;5076902;28;20035;-45
2022/05/22 10:45:59;;;;;;;10.13;1.83;;;;;;;23.19;37.58;101562.84;5076309;28;20527;-49
2022/05/22 10:48:26;;;;;;;8.07;1.80;;;;;;;22.80;37.55;101563.00;5076150;28;20048;-44
2022/05/22 10:51:06;;;;;;;8.50;1.98;;;;;;;22.53;36.66;101558.53;5058413;28;20025;-46
2022/05/22 10:53:52;;;;;;;7.07;1.60;;;;;;;22.14;37.62;101554.38;5076145;28;20510;-43
2022/05/22 10:56:33;;;;;;;5.57;1.75;;;;;;;23.08;36.65;101535.59;5076080;28;20405;-44
2022/05/22 10:59:04;;;;;;;5.65;1.95;;;;;;;22.25;37.57;101537.69;5075977;28;20101;-43
2022/05/22 11:01:39;;;;;;;6.50;1.85;;;;;;;23.07;36.67;101535.84;5075746;28;20024;-44
2022/05/22 11:04:08;;;;;;;8.60;2.13;;;;;;;23.63;35.20;101528.28;5075611;28;20434;-51
2022/05/22 11:06:38;;;;;;;6.88;1.75;;;;;;;24.08;34.68;101530.38;5075782;28;20075;-50
2022/05/22 11:09:06;;;;;;;7.97;2.30;;;;;;;23.46;35.38;101539.00;5076027;28;20025;-44
2022/05/22 11:11:34;;;;;;;8.07;1.75;;;;;;;22.74;37.25;101532.38;5075392;28;20071;-46
2022/05/22 11:14:09;;;;;;;9.77;2.08;;;;;;;23.01;36.50;101534.22;5057220;28;20106;-45
2022/05/22 11:16:36;;;;;;;4.50;1.63;;;;;;;22.33;37.77;101532.00;5075295;28;20035;-42
2022/05/22 11:19:07;;;;;;;7.43;2.08;;;;;;;23.20;37.80;101519.59;5075650;28;20024;-45
2022/05/22 11:21:35;;;;;;;6.15;1.90;;;;;;;23.85;34.89;101521.03;5075269;28;20028;-44
2022/05/22 11:24:25;;;;;;;7.00;1.60;;;;;;;23.22;36.49;101506.97;5057076;28;20028;-45
2022/05/22 11:27:07;;;;;;;4.85;1.75;;;;;;;23.90;35.34;101499.13;5074687;28;20417;-46
2022/05/22 11:30:13;;;;;;;5.38;1.52;;;;;;;23.81;35.17;101487.50;5075273;28;20078;-45
2022/05/22 11:33:03;;;;;;;4.55;1.67;;;;;;;23.46;35.96;101502.09;5074198;28;20182;-46
2022/05/22 11:35:35;;;;;;;8.00;1.90;;;;;;;23.55;34.76;101491.84;5075333;28;20050;-45
2022/05/22 11:38:20;;;;;;;5.95;2.00;;;;;;;23.47;34.92;101485.19;5075243;28;20044;-43
2022/05/22 11:41:19;;;;;;;4.47;1.65;;;;;;;22.97;35.42;101484.63;5075454;28;20584;-45
2022/05/22 11:44:11;;;;;;;5.20;1.77;;;;;;;23.15;34.88;101490.56;5056880;28;20467;-46
2022/05/22 11:46:58;;;;;;;7.18;2.05;;;;;;;23.41;34.53;101488.88;5057177;28;20024;-46
2022/05/22 11:49:52;;;;;;;5.60;1.65;;;;;;;25.21;37.09;101475.78;5075045;28;20074;-45
2022/05/22 11:52:54;;;;;;;8.95;1.80;;;;;;;25.99;33.36;101465.72;5075017;28;20028;-45